sensor_id;sensor_type;location;lat;lon;timestamp;temperature;humidity
20233;DHT22;37438;55.674;13.074;2023-03-29T00:02:35;3.80;99.90
20233;DHT22;37438;55.674;13.074;2023-03-29T00:05:40;3.80;99.90
20233;DHT22;37438;55.674;13.074;2023-03-29T00:08:45;3.80;99.90
20233;DHT22;37438;55.674;13.074;2023-03-29T00:11:49;3.80;99.90
20233;DHT22;37438;55.674;13.074;2023-03-29T00:14:53;3.70;99.90
20233;DHT22;37438;55.674;13.074;2023-03-29T00:17:58;3.80;99.90
20233;DHT22;37438;55.674;13.074;2023-03-29T00:21:02;3.80;99.90
20233;DHT22;37438;55.674;13.074;2023-03-29T00:24:07;3.80;99.90
20233;DHT22;37438;55.674;13.074;2023-03-29T00:27:12;3.80;99.90
20233;DHT22;37438;55.674;13.074;2023-03-29T00:30:16;3.80;99.90
20233;DHT22;37438;55.674;13.074;2023-03-29T00:33:21;3.80;99.90
20233;DHT22;37438;55.674;13.074;2023-03-29T00:36:26;3.80;99.90
20233;DHT22;37438;55.674;13.074;2023-03-29T00:39:30;3.80;99.90
20233;DHT22;37438;55.674;13.074;2023-03-29T00:42:35;3.80;99.90
20233;DHT22;37438;55.674;13.074;2023-03-29T00:45:39;3.80;99.90
20233;DHT22;37438;55.674;13.074;2023-03-29T00:48:43;3.80;99.90
20233;DHT22;37438;55.674;13.074;2023-03-29T00:51:48;3.80;99.90
20233;DHT22;37438;55.674;13.074;2023-03-29T00:54:53;3.80;99.90
20233;DHT22;37438;55.674;13.074;2023-03-29T00:57:58;3.90;99.90
20233;DHT22;37438;55.674;13.074;2023-03-29T01:01:09;3.80;99.90
20233;DHT22;37438;55.674;13.074;2023-03-29T01:04:24;3.80;99.90
20233;DHT22;37438;55.674;13.074;2023-03-29T01:07:43;3.80;99.90
20233;DHT22;37438;55.674;13.074;2023-03-29T01:10:55;3.80;99.90
20233;DHT22;37438;55.674;13.074;2023-03-29T01:14:03;3.80;99.90
20233;DHT22;37438;55.674;13.074;2023-03-29T01:17:09;3.80;99.90
20233;DHT22;37438;55.674;13.074;2023-03-29T01:20:15;3.80;99.90
20233;DHT22;37438;55.674;13.074;2023-03-29T01:23:39;3.80;99.90
20233;DHT22;37438;55.674;13.074;2023-03-29T01:26:52;3.80;99.90
20233;DHT22;37438;55.674;13.074;2023-03-29T01:30:00;3.80;99.90
20233;DHT22;37438;55.674;13.074;2023-03-29T01:33:09;3.80;99.90
20233;DHT22;37438;55.674;13.074;2023-03-29T01:36:16;3.80;99.90
20233;DHT22;37438;55.674;13.074;2023-03-29T01:39:22;3.80;88.10
20233;DHT22;37438;55.674;13.074;2023-03-29T01:51:54;3.80;1.00
20233;DHT22;37438;55.674;13.074;2023-03-29T01:58:11;3.80;1.00
20233;DHT22;37438;55.674;13.074;2023-03-29T02:01:19;3.80;1.00
20233;DHT22;37438;55.674;13.074;2023-03-29T02:04:27;3.80;1.00
20233;DHT22;37438;55.674;13.074;2023-03-29T02:07:33;3.80;1.00
20233;DHT22;37438;55.674;13.074;2023-03-29T02:10:41;3.80;1.00
20233;DHT22;37438;55.674;13.074;2023-03-29T02:13:47;3.80;1.00
20233;DHT22;37438;55.674;13.074;2023-03-29T02:16:52;3.70;1.00
20233;DHT22;37438;55.674;13.074;2023-03-29T02:20:01;3.80;1.00
20233;DHT22;37438;55.674;13.074;2023-03-29T02:23:27;3.70;1.00
20233;DHT22;37438;55.674;13.074;2023-03-29T02:26:36;3.80;1.00
20233;DHT22;37438;55.674;13.074;2023-03-29T02:29:41;3.80;1.00
20233;DHT22;37438;55.674;13.074;2023-03-29T02:36:00;3.80;1.00
20233;DHT22;37438;55.674;13.074;2023-03-29T02:39:06;3.80;1.00
20233;DHT22;37438;55.674;13.074;2023-03-29T02:42:12;3.70;1.00
20233;DHT22;37438;55.674;13.074;2023-03-29T02:45:20;3.80;1.00
20233;DHT22;37438;55.674;13.074;2023-03-29T02:48:27;3.70;1.00
20233;DHT22;37438;55.674;13.074;2023-03-29T02:51:32;3.70;1.00
20233;DHT22;37438;55.674;13.074;2023-03-29T02:54:38;3.70;1.00
20233;DHT22;37438;55.674;13.074;2023-03-29T02:57:46;3.70;1.00
20233;DHT22;37438;55.674;13.074;2023-03-29T03:00:51;3.70;1.00
20233;DHT22;37438;55.674;13.074;2023-03-29T03:03:56;3.70;1.00
20233;DHT22;37438;55.674;13.074;2023-03-29T03:07:01;3.70;1.00
20233;DHT22;37438;55.674;13.074;2023-03-29T03:10:08;3.70;1.00
20233;DHT22;37438;55.674;13.074;2023-03-29T03:13:14;3.70;6.10
20233;DHT22;37438;55.674;13.074;2023-03-29T03:16:18;3.70;17.00
20233;DHT22;37438;55.674;13.074;2023-03-29T03:19:22;3.70;37.50
20233;DHT22;37438;55.674;13.074;2023-03-29T03:22:27;3.80;47.80
20233;DHT22;37438;55.674;13.074;2023-03-29T03:25:32;3.70;51.80
20233;DHT22;37438;55.674;13.074;2023-03-29T03:28:38;3.70;57.80
20233;DHT22;37438;55.674;13.074;2023-03-29T03:31:46;3.80;78.70
20233;DHT22;37438;55.674;13.074;2023-03-29T03:35:11;3.80;71.40
20233;DHT22;37438;55.674;13.074;2023-03-29T03:38:16;3.80;96.00
20233;DHT22;37438;55.674;13.074;2023-03-29T03:41:26;3.80;99.90
20233;DHT22;37438;55.674;13.074;2023-03-29T03:44:30;3.80;99.90
20233;DHT22;37438;55.674;13.074;2023-03-29T03:47:53;3.80;99.90
20233;DHT22;37438;55.674;13.074;2023-03-29T03:51:14;3.90;99.90
20233;DHT22;37438;55.674;13.074;2023-03-29T03:54:18;3.90;99.90
20233;DHT22;37438;55.674;13.074;2023-03-29T03:57:45;3.90;99.90
20233;DHT22;37438;55.674;13.074;2023-03-29T04:00:54;3.90;99.90
20233;DHT22;37438;55.674;13.074;2023-03-29T04:04:17;4.00;99.90
20233;DHT22;37438;55.674;13.074;2023-03-29T04:07:41;4.00;99.90
20233;DHT22;37438;55.674;13.074;2023-03-29T04:11:04;4.00;99.90
20233;DHT22;37438;55.674;13.074;2023-03-29T04:14:13;4.00;99.90
20233;DHT22;37438;55.674;13.074;2023-03-29T04:17:39;4.00;99.90
20233;DHT22;37438;55.674;13.074;2023-03-29T04:21:04;4.00;99.90
20233;DHT22;37438;55.674;13.074;2023-03-29T04:24:11;4.10;99.90
20233;DHT22;37438;55.674;13.074;2023-03-29T04:27:18;4.00;99.90
20233;DHT22;37438;55.674;13.074;2023-03-29T04:30:23;4.10;99.90
20233;DHT22;37438;55.674;13.074;2023-03-29T04:33:39;4.10;99.90
20233;DHT22;37438;55.674;13.074;2023-03-29T04:36:44;4.10;99.90
20233;DHT22;37438;55.674;13.074;2023-03-29T04:39:55;4.10;99.90
20233;DHT22;37438;55.674;13.074;2023-03-29T04:43:00;4.10;99.90
20233;DHT22;37438;55.674;13.074;2023-03-29T04:46:06;4.20;99.90
20233;DHT22;37438;55.674;13.074;2023-03-29T04:49:30;4.10;99.90
20233;DHT22;37438;55.674;13.074;2023-03-29T04:52:35;4.20;99.90
20233;DHT22;37438;55.674;13.074;2023-03-29T04:55:42;4.20;99.90
20233;DHT22;37438;55.674;13.074;2023-03-29T04:58:50;4.20;99.90
20233;DHT22;37438;55.674;13.074;2023-03-29T05:01:55;4.20;99.90
20233;DHT22;37438;55.674;13.074;2023-03-29T05:05:00;4.20;99.90
20233;DHT22;37438;55.674;13.074;2023-03-29T05:08:04;4.20;99.90
20233;DHT22;37438;55.674;13.074;2023-03-29T05:11:15;4.20;99.90
20233;DHT22;37438;55.674;13.074;2023-03-29T05:14:20;4.20;99.90
20233;DHT22;37438;55.674;13.074;2023-03-29T05:17:24;4.20;99.90
20233;DHT22;37438;55.674;13.074;2023-03-29T05:20:35;4.20;99.90
20233;DHT22;37438;55.674;13.074;2023-03-29T05:23:42;4.20;99.90
20233;DHT22;37438;55.674;13.074;2023-03-29T05:27:07;4.20;99.90
20233;DHT22;37438;55.674;13.074;2023-03-29T05:30:13;4.30;99.90
20233;DHT22;37438;55.674;13.074;2023-03-29T05:33:31;4.30;99.90
20233;DHT22;37438;55.674;13.074;2023-03-29T05:36:36;4.30;99.90
20233;DHT22;37438;55.674;13.074;2023-03-29T05:39:42;4.30;99.90
20233;DHT22;37438;55.674;13.074;2023-03-29T05:42:47;4.30;99.90
20233;DHT22;37438;55.674;13.074;2023-03-29T05:45:53;4.30;99.90
20233;DHT22;37438;55.674;13.074;2023-03-29T05:48:58;4.30;99.90
20233;DHT22;37438;55.674;13.074;2023-03-29T05:52:17;4.40;99.90
20233;DHT22;37438;55.674;13.074;2023-03-29T05:55:23;4.40;99.90
20233;DHT22;37438;55.674;13.074;2023-03-29T05:58:27;4.40;99.90
20233;DHT22;37438;55.674;13.074;2023-03-29T06:01:32;4.40;99.90
20233;DHT22;37438;55.674;13.074;2023-03-29T06:04:41;4.30;99.90
20233;DHT22;37438;55.674;13.074;2023-03-29T06:08:01;4.40;99.90
20233;DHT22;37438;55.674;13.074;2023-03-29T06:11:44;4.50;99.90
20233;DHT22;37438;55.674;13.074;2023-03-29T06:15:05;4.40;99.90
20233;DHT22;37438;55.674;13.074;2023-03-29T06:18:42;4.40;99.90
20233;DHT22;37438;55.674;13.074;2023-03-29T06:21:47;4.50;99.90
20233;DHT22;37438;55.674;13.074;2023-03-29T06:24:57;4.40;99.90
20233;DHT22;37438;55.674;13.074;2023-03-29T06:28:06;4.50;99.90
20233;DHT22;37438;55.674;13.074;2023-03-29T06:31:11;4.50;99.90
20233;DHT22;37438;55.674;13.074;2023-03-29T06:34:16;4.50;99.90
20233;DHT22;37438;55.674;13.074;2023-03-29T06:37:33;4.50;99.90
20233;DHT22;37438;55.674;13.074;2023-03-29T06:40:50;4.60;99.90
20233;DHT22;37438;55.674;13.074;2023-03-29T06:43:57;4.50;99.90
20233;DHT22;37438;55.674;13.074;2023-03-29T06:47:09;4.60;99.90
20233;DHT22;37438;55.674;13.074;2023-03-29T06:50:13;4.70;99.90
20233;DHT22;37438;55.674;13.074;2023-03-29T06:53:30;4.80;99.90
20233;DHT22;37438;55.674;13.074;2023-03-29T06:56:38;4.80;99.90
20233;DHT22;37438;55.674;13.074;2023-03-29T06:59:47;4.80;99.90
20233;DHT22;37438;55.674;13.074;2023-03-29T07:02:56;4.70;99.90
20233;DHT22;37438;55.674;13.074;2023-03-29T07:06:02;4.70;99.90
20233;DHT22;37438;55.674;13.074;2023-03-29T07:09:14;4.80;99.90
20233;DHT22;37438;55.674;13.074;2023-03-29T07:12:57;4.90;99.90
20233;DHT22;37438;55.674;13.074;2023-03-29T07:16:05;4.70;99.90
20233;DHT22;37438;55.674;13.074;2023-03-29T07:19:36;4.70;99.90
20233;DHT22;37438;55.674;13.074;2023-03-29T07:22:48;4.70;99.90
20233;DHT22;37438;55.674;13.074;2023-03-29T07:25:56;4.80;99.90
20233;DHT22;37438;55.674;13.074;2023-03-29T07:29:02;4.70;99.90
20233;DHT22;37438;55.674;13.074;2023-03-29T07:32:07;4.70;99.90
20233;DHT22;37438;55.674;13.074;2023-03-29T07:35:11;4.90;99.90
20233;DHT22;37438;55.674;13.074;2023-03-29T07:38:16;4.80;99.90
20233;DHT22;37438;55.674;13.074;2023-03-29T07:41:26;4.80;99.90
20233;DHT22;37438;55.674;13.074;2023-03-29T07:44:39;4.80;99.90
20233;DHT22;37438;55.674;13.074;2023-03-29T07:47:45;4.80;99.90
20233;DHT22;37438;55.674;13.074;2023-03-29T07:50:49;4.90;99.90
20233;DHT22;37438;55.674;13.074;2023-03-29T07:53:58;5.00;99.90
20233;DHT22;37438;55.674;13.074;2023-03-29T07:57:23;4.90;99.90
20233;DHT22;37438;55.674;13.074;2023-03-29T08:00:30;5.00;99.90
20233;DHT22;37438;55.674;13.074;2023-03-29T08:03:56;5.00;99.90
20233;DHT22;37438;55.674;13.074;2023-03-29T08:07:16;5.00;99.90
20233;DHT22;37438;55.674;13.074;2023-03-29T08:10:52;5.10;99.90
20233;DHT22;37438;55.674;13.074;2023-03-29T08:14:28;5.10;99.90
20233;DHT22;37438;55.674;13.074;2023-03-29T08:17:57;5.10;99.90
20233;DHT22;37438;55.674;13.074;2023-03-29T08:21:02;4.90;99.90
20233;DHT22;37438;55.674;13.074;2023-03-29T08:24:08;5.00;99.90
20233;DHT22;37438;55.674;13.074;2023-03-29T08:27:18;5.00;99.90
20233;DHT22;37438;55.674;13.074;2023-03-29T08:30:23;5.00;99.90
20233;DHT22;37438;55.674;13.074;2023-03-29T08:33:28;5.10;99.90
20233;DHT22;37438;55.674;13.074;2023-03-29T08:36:52;5.00;99.90
20233;DHT22;37438;55.674;13.074;2023-03-29T08:40:20;5.20;99.90
20233;DHT22;37438;55.674;13.074;2023-03-29T08:50:13;5.30;99.90
20233;DHT22;37438;55.674;13.074;2023-03-29T08:53:31;5.40;99.90
20233;DHT22;37438;55.674;13.074;2023-03-29T08:56:50;5.30;99.90
20233;DHT22;37438;55.674;13.074;2023-03-29T09:00:06;5.50;99.90
20233;DHT22;37438;55.674;13.074;2023-03-29T09:03:38;5.40;99.90
20233;DHT22;37438;55.674;13.074;2023-03-29T09:06:47;5.40;99.90
20233;DHT22;37438;55.674;13.074;2023-03-29T09:09:57;5.50;99.90
20233;DHT22;37438;55.674;13.074;2023-03-29T09:13:17;5.40;99.90
20233;DHT22;37438;55.674;13.074;2023-03-29T09:16:32;5.30;99.90
20233;DHT22;37438;55.674;13.074;2023-03-29T09:19:42;5.30;99.90
20233;DHT22;37438;55.674;13.074;2023-03-29T09:29:39;5.50;99.90
20233;DHT22;37438;55.674;13.074;2023-03-29T09:32:54;5.40;99.90
20233;DHT22;37438;55.674;13.074;2023-03-29T09:39:13;5.50;99.90
20233;DHT22;37438;55.674;13.074;2023-03-29T09:42:24;5.60;99.90
20233;DHT22;37438;55.674;13.074;2023-03-29T09:45:31;5.80;99.90
20233;DHT22;37438;55.674;13.074;2023-03-29T09:48:36;5.70;99.90
20233;DHT22;37438;55.674;13.074;2023-03-29T09:51:41;5.80;99.90
20233;DHT22;37438;55.674;13.074;2023-03-29T09:54:46;5.90;99.90
20233;DHT22;37438;55.674;13.074;2023-03-29T09:58:16;5.80;99.90
20233;DHT22;37438;55.674;13.074;2023-03-29T10:01:25;5.80;99.90
20233;DHT22;37438;55.674;13.074;2023-03-29T10:04:38;5.90;99.90
20233;DHT22;37438;55.674;13.074;2023-03-29T10:07:46;6.00;99.90
20233;DHT22;37438;55.674;13.074;2023-03-29T10:10:52;6.00;99.90
20233;DHT22;37438;55.674;13.074;2023-03-29T10:13:59;5.90;99.90
20233;DHT22;37438;55.674;13.074;2023-03-29T10:17:05;5.90;99.90
20233;DHT22;37438;55.674;13.074;2023-03-29T10:20:16;5.80;99.90
20233;DHT22;37438;55.674;13.074;2023-03-29T10:23:21;5.90;99.90
20233;DHT22;37438;55.674;13.074;2023-03-29T10:26:30;5.70;99.90
20233;DHT22;37438;55.674;13.074;2023-03-29T10:29:36;5.70;99.90
20233;DHT22;37438;55.674;13.074;2023-03-29T10:32:41;5.90;99.90
20233;DHT22;37438;55.674;13.074;2023-03-29T10:35:46;5.80;99.90
20233;DHT22;37438;55.674;13.074;2023-03-29T10:38:51;5.70;99.90
20233;DHT22;37438;55.674;13.074;2023-03-29T10:41:57;5.70;99.90
20233;DHT22;37438;55.674;13.074;2023-03-29T10:45:02;5.70;99.90
20233;DHT22;37438;55.674;13.074;2023-03-29T10:48:13;5.80;99.90
20233;DHT22;37438;55.674;13.074;2023-03-29T10:51:18;5.70;99.90
20233;DHT22;37438;55.674;13.074;2023-03-29T10:54:22;5.80;99.90
20233;DHT22;37438;55.674;13.074;2023-03-29T10:57:41;5.80;99.90
20233;DHT22;37438;55.674;13.074;2023-03-29T11:00:55;5.80;99.90
20233;DHT22;37438;55.674;13.074;2023-03-29T11:20:27;6.20;99.90
20233;DHT22;37438;55.674;13.074;2023-03-29T11:23:59;6.10;99.90
20233;DHT22;37438;55.674;13.074;2023-03-29T11:30:36;6.10;99.90
20233;DHT22;37438;55.674;13.074;2023-03-29T11:33:47;6.00;99.90
20233;DHT22;37438;55.674;13.074;2023-03-29T11:43:10;6.20;99.90
20233;DHT22;37438;55.674;13.074;2023-03-29T11:46:17;6.20;99.90
20233;DHT22;37438;55.674;13.074;2023-03-29T11:49:25;6.40;99.90
20233;DHT22;37438;55.674;13.074;2023-03-29T11:55:54;6.50;99.90
20233;DHT22;37438;55.674;13.074;2023-03-29T11:59:02;6.30;99.90
20233;DHT22;37438;55.674;13.074;2023-03-29T12:02:15;6.40;99.90
20233;DHT22;37438;55.674;13.074;2023-03-29T12:05:22;6.40;99.90
20233;DHT22;37438;55.674;13.074;2023-03-29T12:08:37;6.30;99.90
20233;DHT22;37438;55.674;13.074;2023-03-29T12:11:51;6.30;99.90
20233;DHT22;37438;55.674;13.074;2023-03-29T12:15:00;6.40;99.90
20233;DHT22;37438;55.674;13.074;2023-03-29T12:18:09;6.40;99.90
20233;DHT22;37438;55.674;13.074;2023-03-29T12:21:19;6.50;99.90
20233;DHT22;37438;55.674;13.074;2023-03-29T12:24:26;6.90;99.90
20233;DHT22;37438;55.674;13.074;2023-03-29T12:27:33;6.90;99.90
20233;DHT22;37438;55.674;13.074;2023-03-29T12:30:45;6.90;99.90
20233;DHT22;37438;55.674;13.074;2023-03-29T12:41:01;6.60;95.40
20233;DHT22;37438;55.674;13.074;2023-03-29T12:44:56;6.60;98.50
20233;DHT22;37438;55.674;13.074;2023-03-29T12:48:13;6.60;84.90
20233;DHT22;37438;55.674;13.074;2023-03-29T12:51:21;6.70;56.20
20233;DHT22;37438;55.674;13.074;2023-03-29T12:54:30;6.80;19.30
20233;DHT22;37438;55.674;13.074;2023-03-29T12:57:40;6.90;1.00
20233;DHT22;37438;55.674;13.074;2023-03-29T13:00:45;7.00;1.00
20233;DHT22;37438;55.674;13.074;2023-03-29T13:07:01;7.80;1.00
20233;DHT22;37438;55.674;13.074;2023-03-29T13:10:07;7.80;1.00
20233;DHT22;37438;55.674;13.074;2023-03-29T13:13:14;7.70;1.00
20233;DHT22;37438;55.674;13.074;2023-03-29T13:16:20;8.10;99.90
20233;DHT22;37438;55.674;13.074;2023-03-29T13:19:40;7.80;99.90
20233;DHT22;37438;55.674;13.074;2023-03-29T13:22:54;8.20;99.90
20233;DHT22;37438;55.674;13.074;2023-03-29T13:29:14;8.20;99.90
20233;DHT22;37438;55.674;13.074;2023-03-29T13:35:50;8.60;99.90
20233;DHT22;37438;55.674;13.074;2023-03-29T13:38:58;8.40;99.90
20233;DHT22;37438;55.674;13.074;2023-03-29T13:42:16;8.60;99.90
20233;DHT22;37438;55.674;13.074;2023-03-29T13:45:24;8.60;99.90
20233;DHT22;37438;55.674;13.074;2023-03-29T13:48:30;8.60;99.90
20233;DHT22;37438;55.674;13.074;2023-03-29T13:51:39;8.40;99.90
20233;DHT22;37438;55.674;13.074;2023-03-29T14:01:01;9.30;99.90
20233;DHT22;37438;55.674;13.074;2023-03-29T14:04:12;9.70;99.90
20233;DHT22;37438;55.674;13.074;2023-03-29T14:07:19;9.50;99.90
20233;DHT22;37438;55.674;13.074;2023-03-29T14:10:31;9.60;99.90
20233;DHT22;37438;55.674;13.074;2023-03-29T14:13:36;9.60;99.90
20233;DHT22;37438;55.674;13.074;2023-03-29T14:16:41;9.60;99.90
20233;DHT22;37438;55.674;13.074;2023-03-29T14:19:46;9.30;99.90
20233;DHT22;37438;55.674;13.074;2023-03-29T14:22:51;9.20;99.90
20233;DHT22;37438;55.674;13.074;2023-03-29T14:26:04;9.60;99.90
20233;DHT22;37438;55.674;13.074;2023-03-29T14:29:09;9.50;99.90
20233;DHT22;37438;55.674;13.074;2023-03-29T14:32:15;9.10;99.90
20233;DHT22;37438;55.674;13.074;2023-03-29T14:35:20;9.20;99.90
20233;DHT22;37438;55.674;13.074;2023-03-29T14:38:30;9.30;99.90
20233;DHT22;37438;55.674;13.074;2023-03-29T14:41:35;9.20;99.90
20233;DHT22;37438;55.674;13.074;2023-03-29T14:44:40;9.10;99.90
20233;DHT22;37438;55.674;13.074;2023-03-29T14:47:45;9.00;99.90
20233;DHT22;37438;55.674;13.074;2023-03-29T14:50:50;8.90;99.90
20233;DHT22;37438;55.674;13.074;2023-03-29T14:53:59;8.60;99.90
20233;DHT22;37438;55.674;13.074;2023-03-29T14:57:05;8.40;99.90
20233;DHT22;37438;55.674;13.074;2023-03-29T15:03:25;8.40;99.90
20233;DHT22;37438;55.674;13.074;2023-03-29T15:06:30;8.30;99.90
20233;DHT22;37438;55.674;13.074;2023-03-29T15:09:34;8.10;99.90
20233;DHT22;37438;55.674;13.074;2023-03-29T15:12:41;8.00;1.00
20233;DHT22;37438;55.674;13.074;2023-03-29T15:15:46;8.00;99.90
20233;DHT22;37438;55.674;13.074;2023-03-29T15:18:53;7.90;99.90
20233;DHT22;37438;55.674;13.074;2023-03-29T15:22:02;7.90;1.00
20233;DHT22;37438;55.674;13.074;2023-03-29T15:25:14;7.60;1.00
20233;DHT22;37438;55.674;13.074;2023-03-29T15:28:27;7.40;1.00
20233;DHT22;37438;55.674;13.074;2023-03-29T15:31:36;7.60;1.00
20233;DHT22;37438;55.674;13.074;2023-03-29T15:34:41;7.50;1.00
20233;DHT22;37438;55.674;13.074;2023-03-29T15:37:46;7.50;1.00
20233;DHT22;37438;55.674;13.074;2023-03-29T15:40:50;7.50;1.00
20233;DHT22;37438;55.674;13.074;2023-03-29T15:43:54;7.40;1.00
20233;DHT22;37438;55.674;13.074;2023-03-29T15:46:58;7.40;1.00
20233;DHT22;37438;55.674;13.074;2023-03-29T15:50:03;7.40;1.00
20233;DHT22;37438;55.674;13.074;2023-03-29T15:53:07;7.40;1.00
20233;DHT22;37438;55.674;13.074;2023-03-29T15:56:19;7.40;1.00
20233;DHT22;37438;55.674;13.074;2023-03-29T15:59:23;7.40;1.00
20233;DHT22;37438;55.674;13.074;2023-03-29T16:02:28;7.40;1.00
20233;DHT22;37438;55.674;13.074;2023-03-29T16:05:32;7.40;10.00
20233;DHT22;37438;55.674;13.074;2023-03-29T16:08:36;7.40;2.80
20233;DHT22;37438;55.674;13.074;2023-03-29T16:11:41;7.30;7.50
20233;DHT22;37438;55.674;13.074;2023-03-29T16:14:45;7.30;42.20
20233;DHT22;37438;55.674;13.074;2023-03-29T16:17:50;7.30;49.20
20233;DHT22;37438;55.674;13.074;2023-03-29T16:20:55;7.20;58.40
20233;DHT22;37438;55.674;13.074;2023-03-29T16:24:00;7.30;72.70
20233;DHT22;37438;55.674;13.074;2023-03-29T16:27:04;7.20;82.10
20233;DHT22;37438;55.674;13.074;2023-03-29T16:30:09;7.20;95.90
20233;DHT22;37438;55.674;13.074;2023-03-29T16:33:13;7.20;99.90
20233;DHT22;37438;55.674;13.074;2023-03-29T16:36:18;7.20;99.80
20233;DHT22;37438;55.674;13.074;2023-03-29T16:39:23;7.20;99.90
20233;DHT22;37438;55.674;13.074;2023-03-29T16:42:27;7.20;99.90
20233;DHT22;37438;55.674;13.074;2023-03-29T16:45:31;7.20;99.90
20233;DHT22;37438;55.674;13.074;2023-03-29T16:48:35;7.20;99.90
20233;DHT22;37438;55.674;13.074;2023-03-29T16:51:40;7.20;99.90
20233;DHT22;37438;55.674;13.074;2023-03-29T16:54:44;7.10;99.90
20233;DHT22;37438;55.674;13.074;2023-03-29T16:57:50;7.10;99.90
20233;DHT22;37438;55.674;13.074;2023-03-29T17:00:55;7.10;99.90
20233;DHT22;37438;55.674;13.074;2023-03-29T17:04:00;7.10;99.90
20233;DHT22;37438;55.674;13.074;2023-03-29T17:07:05;7.00;99.90
20233;DHT22;37438;55.674;13.074;2023-03-29T17:10:10;7.00;99.90
20233;DHT22;37438;55.674;13.074;2023-03-29T17:13:15;6.90;99.90
20233;DHT22;37438;55.674;13.074;2023-03-29T17:16:19;6.90;99.90
20233;DHT22;37438;55.674;13.074;2023-03-29T17:19:24;6.80;99.90
20233;DHT22;37438;55.674;13.074;2023-03-29T17:22:29;6.80;99.90
20233;DHT22;37438;55.674;13.074;2023-03-29T17:25:32;6.80;99.90
20233;DHT22;37438;55.674;13.074;2023-03-29T17:28:37;6.70;99.90
20233;DHT22;37438;55.674;13.074;2023-03-29T17:31:41;6.70;99.90
20233;DHT22;37438;55.674;13.074;2023-03-29T17:34:50;6.70;99.90
20233;DHT22;37438;55.674;13.074;2023-03-29T17:37:56;6.70;99.90
20233;DHT22;37438;55.674;13.074;2023-03-29T17:41:01;6.70;99.90
20233;DHT22;37438;55.674;13.074;2023-03-29T17:44:07;6.60;99.90
20233;DHT22;37438;55.674;13.074;2023-03-29T17:47:11;6.70;99.90
20233;DHT22;37438;55.674;13.074;2023-03-29T17:50:17;6.60;99.90
20233;DHT22;37438;55.674;13.074;2023-03-29T17:53:21;6.60;99.90
20233;DHT22;37438;55.674;13.074;2023-03-29T17:56:26;6.60;99.90
20233;DHT22;37438;55.674;13.074;2023-03-29T17:59:31;6.60;99.90
20233;DHT22;37438;55.674;13.074;2023-03-29T18:02:35;6.60;99.90
20233;DHT22;37438;55.674;13.074;2023-03-29T18:05:39;6.50;99.90
20233;DHT22;37438;55.674;13.074;2023-03-29T18:08:43;6.60;99.90
20233;DHT22;37438;55.674;13.074;2023-03-29T18:11:47;6.50;99.90
20233;DHT22;37438;55.674;13.074;2023-03-29T18:14:52;6.50;99.90
20233;DHT22;37438;55.674;13.074;2023-03-29T18:17:56;6.50;99.90
20233;DHT22;37438;55.674;13.074;2023-03-29T18:21:01;6.50;99.90
20233;DHT22;37438;55.674;13.074;2023-03-29T18:24:05;6.40;99.90
20233;DHT22;37438;55.674;13.074;2023-03-29T18:27:10;6.60;99.90
20233;DHT22;37438;55.674;13.074;2023-03-29T18:30:15;6.50;99.90
20233;DHT22;37438;55.674;13.074;2023-03-29T18:33:20;6.50;99.90
20233;DHT22;37438;55.674;13.074;2023-03-29T18:36:24;6.60;99.90
20233;DHT22;37438;55.674;13.074;2023-03-29T18:39:29;6.50;99.90
20233;DHT22;37438;55.674;13.074;2023-03-29T18:42:34;6.50;99.90
20233;DHT22;37438;55.674;13.074;2023-03-29T18:45:39;6.60;99.90
20233;DHT22;37438;55.674;13.074;2023-03-29T18:48:43;6.50;99.90
20233;DHT22;37438;55.674;13.074;2023-03-29T18:51:47;6.60;99.90
20233;DHT22;37438;55.674;13.074;2023-03-29T18:54:53;6.60;99.90
20233;DHT22;37438;55.674;13.074;2023-03-29T18:57:57;6.60;99.90
20233;DHT22;37438;55.674;13.074;2023-03-29T19:01:02;6.70;99.90
20233;DHT22;37438;55.674;13.074;2023-03-29T19:04:07;6.60;99.90
20233;DHT22;37438;55.674;13.074;2023-03-29T19:07:11;6.70;99.90
20233;DHT22;37438;55.674;13.074;2023-03-29T19:10:16;6.60;99.90
20233;DHT22;37438;55.674;13.074;2023-03-29T19:13:20;6.70;99.90
20233;DHT22;37438;55.674;13.074;2023-03-29T19:16:25;6.70;99.90
20233;DHT22;37438;55.674;13.074;2023-03-29T19:19:30;6.60;99.90
20233;DHT22;37438;55.674;13.074;2023-03-29T19:22:35;6.60;99.90
20233;DHT22;37438;55.674;13.074;2023-03-29T19:25:40;6.60;99.90
20233;DHT22;37438;55.674;13.074;2023-03-29T19:28:46;6.70;99.90
20233;DHT22;37438;55.674;13.074;2023-03-29T19:31:50;6.60;99.90
20233;DHT22;37438;55.674;13.074;2023-03-29T19:34:54;6.60;99.90
20233;DHT22;37438;55.674;13.074;2023-03-29T19:37:59;6.60;99.90
20233;DHT22;37438;55.674;13.074;2023-03-29T19:41:04;6.60;99.90
20233;DHT22;37438;55.674;13.074;2023-03-29T19:44:10;6.60;99.90
20233;DHT22;37438;55.674;13.074;2023-03-29T19:47:14;6.60;99.90
20233;DHT22;37438;55.674;13.074;2023-03-29T19:50:18;6.70;99.90
20233;DHT22;37438;55.674;13.074;2023-03-29T19:53:22;6.60;99.90
20233;DHT22;37438;55.674;13.074;2023-03-29T19:56:27;6.60;99.90
20233;DHT22;37438;55.674;13.074;2023-03-29T19:59:32;6.70;99.90
20233;DHT22;37438;55.674;13.074;2023-03-29T20:02:41;6.70;99.90
20233;DHT22;37438;55.674;13.074;2023-03-29T20:05:46;6.70;99.90
20233;DHT22;37438;55.674;13.074;2023-03-29T20:08:50;6.70;99.90
20233;DHT22;37438;55.674;13.074;2023-03-29T20:11:55;6.70;99.90
20233;DHT22;37438;55.674;13.074;2023-03-29T20:15:00;6.70;99.90
20233;DHT22;37438;55.674;13.074;2023-03-29T20:18:06;6.70;99.90
20233;DHT22;37438;55.674;13.074;2023-03-29T20:21:12;6.80;99.90
20233;DHT22;37438;55.674;13.074;2023-03-29T20:24:20;6.80;99.90
20233;DHT22;37438;55.674;13.074;2023-03-29T20:27:25;6.90;99.90
20233;DHT22;37438;55.674;13.074;2023-03-29T20:30:35;6.90;99.90
20233;DHT22;37438;55.674;13.074;2023-03-29T20:33:40;6.80;99.90
20233;DHT22;37438;55.674;13.074;2023-03-29T20:36:47;6.90;99.90
20233;DHT22;37438;55.674;13.074;2023-03-29T20:39:52;6.80;99.90
20233;DHT22;37438;55.674;13.074;2023-03-29T20:43:03;6.80;99.90
20233;DHT22;37438;55.674;13.074;2023-03-29T20:46:10;6.90;99.90
20233;DHT22;37438;55.674;13.074;2023-03-29T20:49:22;6.80;99.90
20233;DHT22;37438;55.674;13.074;2023-03-29T20:52:29;6.80;99.90
20233;DHT22;37438;55.674;13.074;2023-03-29T20:55:36;6.90;99.90
20233;DHT22;37438;55.674;13.074;2023-03-29T20:58:47;6.80;99.90
20233;DHT22;37438;55.674;13.074;2023-03-29T21:01:52;6.90;99.90
20233;DHT22;37438;55.674;13.074;2023-03-29T21:04:57;6.80;99.90
20233;DHT22;37438;55.674;13.074;2023-03-29T21:08:03;6.90;99.90
20233;DHT22;37438;55.674;13.074;2023-03-29T21:11:09;6.90;99.90
20233;DHT22;37438;55.674;13.074;2023-03-29T21:14:16;6.80;99.90
20233;DHT22;37438;55.674;13.074;2023-03-29T21:17:28;6.80;99.90
20233;DHT22;37438;55.674;13.074;2023-03-29T21:20:36;6.80;99.90
20233;DHT22;37438;55.674;13.074;2023-03-29T21:23:41;6.80;99.90